Aviation Digital Data Service (ADDS)

Output produced by METARs form (2334 UTC 01 September 2014)
found at http://aviationweather.gov/adds/metars/
 
KLCH 012331Z 0200/0224 16008KT P6SM VCSH FEW012 SCT025 BKN040 
     TEMPO 0200/0201 6SM -SHRA 
     FM020200 15005KT P6SM FEW060 BKN250 
     FM020500 14004KT P6SM FEW025 BKN035 
     FM021600 16010KT P6SM VCSH SCT025 BKN050